createdAt,value
2019-04-21T00:05:24.960Z,102126.61
2019-04-21T00:07:50.493Z,102124.19
2019-04-21T00:10:27.266Z,102127.23
2019-04-21T00:12:52.235Z,102121.24
2019-04-21T00:15:19.365Z,102120.38
2019-04-21T00:17:39.078Z,102120.38
2019-04-21T00:20:20.452Z,102121.31
2019-04-21T00:22:52.101Z,102116.62
2019-04-21T00:25:23.541Z,102112.68
2019-04-21T00:28:09.410Z,102116.30
2019-04-21T00:30:42.826Z,102108.50
2019-04-21T00:32:59.743Z,102112.84
2019-04-21T00:35:24.388Z,102106.34
2019-04-21T00:38:13.658Z,102106.41
2019-04-21T00:40:41.794Z,102103.00
2019-04-21T00:43:13.575Z,102100.86
2019-04-21T00:45:38.547Z,102099.98
2019-04-21T00:48:17.988Z,102098.77
2019-04-21T00:51:05.523Z,102094.09
2019-04-21T00:53:43.852Z,102098.34
2019-04-21T00:56:08.948Z,102094.12
2019-04-21T00:58:43.712Z,102094.55
2019-04-21T01:01:07.394Z,102094.55
2019-04-21T01:03:41.672Z,102084.31
2019-04-21T01:06:11.435Z,102084.31
2019-04-21T01:08:35.779Z,102089.00
2019-04-21T01:11:12.328Z,102089.00
2019-04-21T01:13:45.572Z,102083.03
2019-04-21T01:16:13.831Z,102092.94
2019-04-21T01:18:48.305Z,102083.53
2019-04-21T01:20:51.092Z,102076.64
2019-04-21T01:23:21.757Z,102088.30
2019-04-21T01:26:07.588Z,102086.99
2019-04-21T01:28:41.364Z,102078.41
2019-04-21T01:31:15.387Z,102081.89
2019-04-21T01:33:52.134Z,102079.75
2019-04-21T01:36:14.008Z,102079.75
2019-04-21T01:38:58.663Z,102084.92
2019-04-21T01:41:20.958Z,102072.02
2019-04-21T01:43:45.815Z,102072.02
2019-04-21T01:46:14.118Z,102062.14
2019-04-21T01:48:46.338Z,102062.14
2019-04-21T01:51:15.759Z,102072.95
2019-04-21T01:53:55.140Z,102073.38
2019-04-21T01:56:38.693Z,102071.26
2019-04-21T01:58:59.453Z,102071.26
2019-04-21T02:01:39.210Z,102075.56
2019-04-21T02:04:16.218Z,102075.56
2019-04-21T02:06:45.613Z,102074.31
2019-04-21T02:09:09.717Z,102074.31
2019-04-21T02:11:52.070Z,102081.23
2019-04-21T02:14:15.724Z,102075.21
2019-04-21T02:16:48.246Z,102079.09
2019-04-21T02:19:11.640Z,102080.38
2019-04-21T02:21:39.308Z,102074.33
2019-04-21T02:24:25.454Z,102074.33
2019-04-21T02:26:49.041Z,102065.28
2019-04-21T02:29:24.678Z,102065.28
2019-04-21T02:32:11.197Z,102065.75
2019-04-21T02:34:27.263Z,102063.61
2019-04-21T02:37:17.924Z,102057.98
2019-04-21T02:47:16.651Z,102061.88
2019-04-21T02:52:01.244Z,102059.31
2019-04-21T02:54:48.383Z,102059.31
2019-04-21T02:57:01.400Z,102050.27
2019-04-21T03:02:25.676Z,102064.92
2019-04-21T03:05:18.228Z,102055.44
2019-04-21T03:07:50.258Z,102046.83
2019-04-21T03:10:17.844Z,102047.70
2019-04-21T03:12:42.115Z,102049.86
2019-04-21T03:15:21.312Z,102031.77
2019-04-21T03:17:51.525Z,102037.77
2019-04-21T03:20:17.640Z,102037.77
2019-04-21T03:22:42.364Z,102036.92
2019-04-21T03:25:30.781Z,102033.05
2019-04-21T03:30:29.267Z,102032.18
2019-04-21T03:37:42.394Z,102021.86
2019-04-21T03:40:14.922Z,102019.27
2019-04-21T03:42:53.053Z,102019.67
2019-04-21T03:45:27.112Z,102017.97
2019-04-21T03:47:43.157Z,102017.52
2019-04-21T03:50:20.525Z,102018.39
2019-04-21T03:52:53.319Z,102016.64
2019-04-21T03:55:51.417Z,102023.09
2019-04-21T04:03:27.316Z,102021.81
2019-04-21T04:08:44.802Z,102028.26
2019-04-21T04:13:39.210Z,102021.34
2019-04-21T04:18:46.204Z,102017.06
2019-04-21T04:21:10.205Z,102019.18
2019-04-21T04:23:42.554Z,102018.31
2019-04-21T04:31:05.695Z,102015.77
2019-04-21T04:38:39.552Z,102024.83
2019-04-21T04:41:33.612Z,102020.11
2019-04-21T04:43:44.562Z,102017.92
2019-04-21T04:46:22.341Z,102016.67
2019-04-21T04:48:41.943Z,102014.52
2019-04-21T04:51:25.248Z,102020.11
2019-04-21T04:53:45.981Z,102021.42
2019-04-21T04:59:20.170Z,102021.88
2019-04-21T05:01:28.944Z,102020.14
2019-04-21T05:03:48.988Z,102013.22
2019-04-21T05:14:02.949Z,102021.37
2019-04-21T05:21:34.722Z,102014.47
2019-04-21T05:23:47.017Z,102020.48
2019-04-21T05:26:10.874Z,102024.72
2019-04-21T05:28:42.025Z,102018.62
2019-04-21T05:31:27.522Z,102019.46
2019-04-21T05:34:00.424Z,102019.46
2019-04-21T05:36:38.253Z,102005.59
2019-04-21T05:39:10.422Z,102009.41
2019-04-21T05:41:36.169Z,102012.70
2019-04-21T05:44:20.458Z,101997.13
2019-04-21T05:46:49.435Z,102008.66
2019-04-21T05:49:20.581Z,102008.66
2019-04-21T05:54:44.310Z,102016.79
2019-04-21T05:57:22.259Z,102016.79
2019-04-21T06:07:38.261Z,102012.13
2019-04-21T06:10:07.272Z,102018.97
2019-04-21T06:12:33.993Z,102018.97
2019-04-21T06:15:09.627Z,102019.59
2019-04-21T06:17:47.260Z,102019.81
2019-04-21T06:20:07.872Z,102023.49
2019-04-21T06:22:39.834Z,102025.67
2019-04-21T06:25:31.229Z,102023.27
2019-04-21T06:27:42.426Z,102021.28
2019-04-21T06:30:05.240Z,102027.08
2019-04-21T06:32:46.789Z,102026.35
2019-04-21T06:38:00.922Z,102015.81
2019-04-21T06:40:35.761Z,102018.67
2019-04-21T06:43:15.683Z,102018.83
2019-04-21T06:45:36.607Z,102009.09
2019-04-21T06:48:05.982Z,102008.34
2019-04-21T06:50:31.846Z,102014.55
2019-04-21T06:53:13.527Z,102018.52
2019-04-21T06:55:35.226Z,102013.58
2019-04-21T06:58:07.872Z,102014.71
2019-04-21T07:00:33.072Z,102008.48
2019-04-21T07:03:17.021Z,102010.17
2019-04-21T07:05:34.626Z,102008.89
2019-04-21T07:08:27.902Z,102008.65
2019-04-21T07:10:35.420Z,102014.58
2019-04-21T07:13:03.744Z,102014.65
2019-04-21T07:15:36.931Z,102008.95
2019-04-21T07:18:04.437Z,102010.15
2019-04-21T07:20:36.628Z,102008.55
2019-04-21T07:23:09.426Z,102011.09
2019-04-21T07:25:40.795Z,102013.02
2019-04-21T07:28:05.257Z,102012.83
2019-04-21T07:30:45.335Z,102010.63
2019-04-21T07:33:33.143Z,102004.27
2019-04-21T07:35:37.302Z,102008.71
2019-04-21T07:38:11.958Z,102003.09
2019-04-21T07:40:36.512Z,101995.09
2019-04-21T07:43:05.672Z,101996.03
2019-04-21T07:45:35.060Z,101997.17
2019-04-21T07:48:12.689Z,101988.61
2019-04-21T07:50:56.290Z,101991.98
2019-04-21T07:55:37.437Z,101989.20
2019-04-21T07:58:29.846Z,101981.56
2019-04-21T08:03:30.370Z,101974.66
2019-04-21T08:05:58.562Z,101984.59
2019-04-21T08:08:27.795Z,101975.31
2019-04-21T08:11:00.031Z,101978.94
2019-04-21T08:13:34.543Z,101975.08
2019-04-21T08:15:58.320Z,101980.21
2019-04-21T08:18:36.196Z,101982.52
2019-04-21T08:21:02.465Z,101976.48
2019-04-21T08:23:31.893Z,101970.16
2019-04-21T08:26:04.848Z,101961.87
2019-04-21T08:28:35.827Z,101964.52
2019-04-21T08:31:02.739Z,101961.38
2019-04-21T08:33:41.464Z,101957.25
2019-04-21T08:38:37.774Z,101953.08
2019-04-21T08:41:08.561Z,101951.64
2019-04-21T08:43:43.166Z,101953.48
2019-04-21T08:46:08.217Z,101945.89
2019-04-21T08:48:40.438Z,101942.35
2019-04-21T08:51:18.531Z,101940.39
2019-04-21T08:56:18.435Z,101938.45
2019-04-21T08:59:03.861Z,101939.28
2019-04-21T09:01:41.587Z,101937.63
2019-04-21T09:04:07.540Z,101928.64
2019-04-21T09:06:55.709Z,101926.35
2019-04-21T09:09:10.952Z,101924.39
2019-04-21T09:11:36.279Z,101922.23
2019-04-21T09:14:07.090Z,101917.23
2019-04-21T09:16:39.672Z,101917.48
2019-04-21T09:19:04.423Z,101918.13
2019-04-21T09:21:45.440Z,101920.56
2019-04-21T09:24:16.222Z,101914.52
2019-04-21T09:26:40.647Z,101912.19
2019-04-21T09:29:04.271Z,101913.34
2019-04-21T09:31:31.857Z,101908.59
2019-04-21T09:34:02.302Z,101903.11
2019-04-21T09:36:36.202Z,101901.98
2019-04-21T09:39:07.789Z,101899.75
2019-04-21T09:41:30.908Z,101895.45
2019-04-21T09:44:01.225Z,101884.34
2019-04-21T09:46:29.966Z,101886.26
2019-04-21T09:49:02.659Z,101880.43
2019-04-21T09:51:28.812Z,101874.92
2019-04-21T09:54:05.779Z,101874.92
2019-04-21T09:56:35.822Z,101868.92
2019-04-21T09:59:10.133Z,101866.27
2019-04-21T10:01:42.042Z,101862.13
2019-04-21T10:04:02.414Z,101861.47
2019-04-21T10:06:30.667Z,101856.55
2019-04-21T10:09:04.147Z,101857.77
2019-04-21T10:11:31.119Z,101850.51
2019-04-21T10:14:00.889Z,101850.42
2019-04-21T10:16:34.358Z,101842.75
2019-04-21T10:19:02.922Z,101843.70
2019-04-21T10:21:31.878Z,101834.35
2019-04-21T10:24:00.482Z,101835.38
2019-04-21T10:26:29.036Z,101832.75
2019-04-21T10:29:05.688Z,101824.41
2019-04-21T10:31:29.030Z,101823.84
2019-04-21T10:33:58.839Z,101815.17
2019-04-21T10:36:27.449Z,101813.25
2019-04-21T10:38:57.661Z,101810.00
2019-04-21T10:41:27.587Z,101805.48
2019-04-21T10:43:56.200Z,101799.80
2019-04-21T10:46:24.795Z,101797.83
2019-04-21T10:48:54.808Z,101790.95
2019-04-21T10:51:23.567Z,101789.55
2019-04-21T10:53:57.902Z,101784.48
2019-04-21T10:56:30.631Z,101785.77
2019-04-21T10:58:56.237Z,101779.19
2019-04-21T11:01:27.204Z,101778.25
2019-04-21T11:03:58.497Z,101770.08
2019-04-21T11:06:28.576Z,101767.87
2019-04-21T11:08:59.487Z,101763.78
2019-04-21T11:11:27.986Z,101757.48
2019-04-21T11:13:56.917Z,101756.87
2019-04-21T11:16:26.800Z,101753.41
2019-04-21T11:18:55.960Z,101749.05
2019-04-21T11:21:25.023Z,101747.84
2019-04-21T11:23:54.251Z,101737.17
2019-04-21T11:26:24.129Z,101742.89
2019-04-21T11:28:52.850Z,101731.39
2019-04-21T11:31:22.939Z,101730.20
2019-04-21T11:33:55.830Z,101730.10
2019-04-21T11:36:24.984Z,101727.84
2019-04-21T11:39:11.011Z,101726.56
2019-04-21T11:41:26.025Z,101725.58
2019-04-21T11:43:55.012Z,101720.81
2019-04-21T11:46:24.502Z,101717.52
2019-04-21T11:48:54.681Z,101721.39
2019-04-21T11:51:24.798Z,101712.81
2019-04-21T11:53:54.896Z,101713.88
2019-04-21T11:56:24.970Z,101705.59
2019-04-21T11:58:54.058Z,101705.45
2019-04-21T12:01:23.482Z,101703.19
2019-04-21T12:03:55.694Z,101702.29
2019-04-21T12:06:32.252Z,101696.54
2019-04-21T12:08:57.670Z,101695.90
2019-04-21T12:11:25.228Z,101696.41
2019-04-21T12:13:54.249Z,101686.19
2019-04-21T12:16:23.335Z,101682.86
2019-04-21T12:18:54.647Z,101676.70
2019-04-21T12:21:23.548Z,101674.34
2019-04-21T12:23:58.658Z,101676.52
2019-04-21T12:26:28.294Z,101671.05
2019-04-21T12:28:57.631Z,101669.03
2019-04-21T12:31:31.748Z,101658.07
2019-04-21T12:34:03.544Z,101658.46
2019-04-21T12:36:33.719Z,101654.51
2019-04-21T12:39:05.074Z,101653.19
2019-04-21T12:41:32.948Z,101649.91
2019-04-21T12:44:02.549Z,101640.81
2019-04-21T12:46:31.836Z,101628.91
2019-04-21T12:49:00.484Z,101630.63
2019-04-21T12:51:30.182Z,101629.09
2019-04-21T12:53:59.574Z,101626.16
2019-04-21T12:56:29.475Z,101619.16
2019-04-21T12:58:59.443Z,101618.80
2019-04-21T13:01:28.153Z,101609.49
2019-04-21T13:03:57.826Z,101605.52
2019-04-21T13:06:27.686Z,101604.53
2019-04-21T13:09:03.387Z,101599.23
2019-04-21T13:11:26.732Z,101593.57
2019-04-21T13:13:55.707Z,101590.44
2019-04-21T13:16:25.420Z,101587.54
2019-04-21T13:18:55.328Z,101578.95
2019-04-21T13:21:24.325Z,101579.31
2019-04-21T13:23:52.892Z,101574.61
2019-04-21T13:26:32.769Z,101579.58
2019-04-21T13:28:54.222Z,101570.64
2019-04-21T13:31:24.469Z,101569.07
2019-04-21T13:33:53.256Z,101563.88
2019-04-21T13:36:21.802Z,101566.86
2019-04-21T13:39:42.349Z,101564.01
2019-04-21T13:41:50.489Z,101564.47
2019-04-21T13:44:15.911Z,101558.58
2019-04-21T13:46:47.127Z,101554.72
2019-04-21T13:49:17.374Z,101551.59
2019-04-21T13:51:46.075Z,101543.35
2019-04-21T13:54:15.707Z,101545.09
2019-04-21T13:56:44.928Z,101539.85
2019-04-21T13:59:14.027Z,101543.86
2019-04-21T14:01:43.632Z,101537.96
2019-04-21T14:04:13.638Z,101532.03
2019-04-21T14:06:42.525Z,101519.20
2019-04-21T14:09:13.704Z,101522.77
2019-04-21T14:11:43.441Z,101529.31
2019-04-21T14:14:12.540Z,101525.21
2019-04-21T14:16:42.355Z,101521.31
2019-04-21T14:19:10.967Z,101515.37
2019-04-21T14:21:39.602Z,101511.53
2019-04-21T14:24:08.895Z,101508.63
2019-04-21T14:26:38.530Z,101511.02
2019-04-21T14:29:07.748Z,101507.03
2019-04-21T14:31:38.113Z,101507.80
2019-04-21T14:34:08.037Z,101504.83
2019-04-21T14:36:37.026Z,101504.55
2019-04-21T14:39:10.374Z,101501.52
2019-04-21T14:41:40.321Z,101499.84
2019-04-21T14:44:09.216Z,101497.43
2019-04-21T14:46:45.214Z,101498.63
2019-04-21T14:49:19.340Z,101490.45
2019-04-21T14:51:56.753Z,101488.36
2019-04-21T14:54:33.140Z,101480.28
2019-04-21T14:57:03.251Z,101486.41
2019-04-21T14:59:33.246Z,101478.25
2019-04-21T15:02:02.192Z,101482.24
2019-04-21T15:04:31.554Z,101479.12
2019-04-21T15:07:01.331Z,101477.97
2019-04-21T15:09:31.350Z,101488.93
2019-04-21T15:12:02.266Z,101480.08
2019-04-21T15:14:31.865Z,101470.85
2019-04-21T15:17:01.005Z,101474.70
2019-04-21T15:19:30.817Z,101479.32
2019-04-21T15:22:00.724Z,101475.48
2019-04-21T15:24:30.174Z,101468.38
2019-04-21T15:26:59.092Z,101463.76
2019-04-21T15:29:28.880Z,101455.20
2019-04-21T15:31:58.843Z,101455.23
2019-04-21T15:34:27.526Z,101451.54
2019-04-21T15:36:56.094Z,101452.94
2019-04-21T15:39:25.743Z,101452.50
2019-04-21T15:41:58.779Z,101450.61
2019-04-21T15:44:27.516Z,101444.91
2019-04-21T15:46:56.071Z,101450.87
2019-04-21T15:49:28.322Z,101441.28
2019-04-21T15:51:58.016Z,101441.41
2019-04-21T15:54:27.254Z,101441.64
2019-04-21T15:57:00.755Z,101442.08
2019-04-21T15:59:30.956Z,101440.83
2019-04-21T16:02:17.051Z,101437.16
2019-04-21T16:04:46.533Z,101435.88
2019-04-21T16:07:16.117Z,101429.19
2019-04-21T16:09:46.083Z,101425.16
2019-04-21T16:12:15.928Z,101426.27
2019-04-21T16:17:13.354Z,101420.49
2019-04-21T16:19:41.903Z,101416.50
2019-04-21T16:22:10.839Z,101413.90
2019-04-21T16:24:39.860Z,101408.49
2019-04-21T16:27:10.719Z,101409.44
2019-04-21T16:29:39.526Z,101410.75
2019-04-21T16:32:09.115Z,101403.70
2019-04-21T16:34:48.384Z,101409.87
2019-04-21T16:37:08.216Z,101406.69
2019-04-21T16:39:37.770Z,101405.55
2019-04-21T16:42:08.408Z,101399.64
2019-04-21T16:44:37.084Z,101403.08
2019-04-21T16:47:07.629Z,101398.77
2019-04-21T16:49:37.911Z,101395.31
2019-04-21T16:52:08.214Z,101394.14
2019-04-21T16:54:37.912Z,101386.52
2019-04-21T16:57:08.245Z,101384.27
2019-04-21T16:59:39.016Z,101379.17
2019-04-21T17:02:07.696Z,101382.48
2019-04-21T17:04:36.406Z,101388.16
2019-04-21T17:07:05.261Z,101382.53
2019-04-21T17:09:34.677Z,101379.85
2019-04-21T17:12:06.384Z,101382.14
2019-04-21T17:16:27.343Z,101377.75
2019-04-21T17:17:26.873Z,101377.45
2019-04-21T17:19:42.073Z,101372.00
2019-04-21T17:22:05.897Z,101370.50
2019-04-21T17:24:34.793Z,101372.91
2019-04-21T17:27:05.011Z,101371.01
2019-04-21T17:29:34.565Z,101370.45
2019-04-21T17:32:07.437Z,101371.58
2019-04-21T17:34:35.526Z,101365.19
2019-04-21T17:37:05.430Z,101371.47
2019-04-21T17:39:34.615Z,101366.39
2019-04-21T17:42:16.584Z,101368.35
2019-04-21T17:44:35.089Z,101365.39
2019-04-21T17:47:11.730Z,101365.99
2019-04-21T17:49:37.050Z,101365.55
2019-04-21T17:52:11.743Z,101363.92
2019-04-21T17:54:48.418Z,101366.65
2019-04-21T17:57:32.327Z,101364.42
2019-04-21T18:00:04.218Z,101362.19
2019-04-21T18:02:36.943Z,101363.70
2019-04-21T18:05:08.593Z,101368.38
2019-04-21T18:07:36.347Z,101364.31
2019-04-21T18:10:17.466Z,101370.20
2019-04-21T18:12:33.778Z,101360.13
2019-04-21T18:14:59.834Z,101369.02
2019-04-21T18:17:20.610Z,101370.11
2019-04-21T18:19:51.853Z,101368.05
2019-04-21T18:22:43.522Z,101370.61
2019-04-21T18:25:25.365Z,101368.04
2019-04-21T18:27:42.708Z,101372.27
2019-04-21T18:30:40.337Z,101369.69
2019-04-21T18:33:15.509Z,101374.83
2019-04-21T18:35:59.977Z,101372.48
2019-04-21T18:38:59.990Z,101374.31
2019-04-21T18:41:15.418Z,101373.27
2019-04-21T18:44:15.198Z,101375.94
2019-04-21T18:46:38.679Z,101377.67
2019-04-21T18:48:57.221Z,101379.07
2019-04-21T18:51:35.918Z,101385.62
2019-04-21T18:54:24.237Z,101382.23
2019-04-21T18:56:33.766Z,101384.59
2019-04-21T18:59:02.818Z,101388.86
2019-04-21T19:01:34.825Z,101384.19
2019-04-21T19:04:05.376Z,101393.48
2019-04-21T19:06:46.950Z,101391.08
2019-04-21T19:09:21.591Z,101391.95
2019-04-21T19:11:51.834Z,101395.11
2019-04-21T19:14:31.981Z,101390.99
2019-04-21T19:19:39.221Z,101393.31
2019-04-21T19:22:00.361Z,101388.73
2019-04-21T19:24:41.318Z,101387.05
2019-04-21T19:26:58.788Z,101393.50
2019-04-21T19:29:29.178Z,101391.58
2019-04-21T19:31:59.965Z,101400.59
2019-04-21T19:34:18.468Z,101397.50
2019-04-21T19:36:46.675Z,101398.38
2019-04-21T19:39:16.434Z,101398.00
2019-04-21T19:41:56.098Z,101399.34
2019-04-21T19:44:29.334Z,101400.02
2019-04-21T19:47:05.206Z,101394.29
2019-04-21T19:49:32.130Z,101403.67
2019-04-21T19:51:52.291Z,101403.43
2019-04-21T19:54:22.890Z,101394.70
2019-04-21T19:56:44.815Z,101399.10
2019-04-21T19:59:23.828Z,101396.95
2019-04-21T20:01:46.768Z,101398.28
2019-04-21T20:04:14.766Z,101391.44
2019-04-21T20:06:56.976Z,101397.28
2019-04-21T20:09:32.206Z,101394.61
2019-04-21T20:11:58.174Z,101399.05
2019-04-21T20:16:59.279Z,101392.22
2019-04-21T20:19:16.207Z,101393.52
2019-04-21T20:21:46.998Z,101392.98
2019-04-21T20:24:22.922Z,101385.87
2019-04-21T20:26:58.594Z,101385.23
2019-04-21T20:29:37.463Z,101391.30
2019-04-21T20:32:14.732Z,101384.19
2019-04-21T20:34:38.662Z,101383.95
2019-04-21T20:37:09.603Z,101382.13
2019-04-21T20:39:23.020Z,101378.38
2019-04-21T20:42:01.825Z,101382.31
2019-04-21T20:44:36.859Z,101379.37
2019-04-21T20:47:03.808Z,101375.47
2019-04-21T20:49:32.173Z,101386.35
2019-04-21T20:52:10.767Z,101382.74
2019-04-21T20:54:37.134Z,101381.02
2019-04-21T20:57:24.179Z,101383.76
2019-04-21T20:59:32.701Z,101381.17
2019-04-21T21:02:12.013Z,101381.77
2019-04-21T21:04:36.916Z,101386.06
2019-04-21T21:07:30.635Z,101386.34
2019-04-21T21:09:54.355Z,101385.88
2019-04-21T21:12:41.065Z,101389.80
2019-04-21T21:14:42.333Z,101387.84
2019-04-21T21:17:37.846Z,101386.77
2019-04-21T21:19:55.764Z,101385.23
2019-04-21T21:22:10.942Z,101383.73
2019-04-21T21:24:49.628Z,101388.03
2019-04-21T21:27:13.018Z,101378.38
2019-04-21T21:29:45.751Z,101380.86
2019-04-21T21:32:24.155Z,101381.98
2019-04-21T21:34:49.637Z,101384.23
2019-04-21T21:37:26.828Z,101382.33
2019-04-21T21:42:06.101Z,101382.23
2019-04-21T21:44:35.286Z,101385.45
2019-04-21T21:47:17.514Z,101382.94
2019-04-21T21:49:51.196Z,101386.09
2019-04-21T21:52:14.428Z,101384.84
2019-04-21T21:54:35.981Z,101378.58
2019-04-21T21:57:05.123Z,101377.19
2019-04-21T21:59:38.070Z,101381.64
2019-04-21T22:02:05.274Z,101377.63
2019-04-21T22:04:37.271Z,101377.98
2019-04-21T22:07:10.000Z,101384.72
2019-04-21T22:09:34.900Z,101382.68
2019-04-21T22:12:06.688Z,101381.05
2019-04-21T22:14:41.574Z,101387.47
2019-04-21T22:17:23.739Z,101386.22
2019-04-21T22:20:01.849Z,101378.67
2019-04-21T22:22:21.566Z,101390.40
2019-04-21T22:24:49.331Z,101385.80
2019-04-21T22:27:07.253Z,101382.44
2019-04-21T22:29:41.728Z,101390.49
2019-04-21T22:32:13.477Z,101382.07
2019-04-21T22:34:46.774Z,101387.06
2019-04-21T22:37:25.895Z,101389.22
2019-04-21T22:39:54.386Z,101382.79
2019-04-21T22:42:17.321Z,101382.59
2019-04-21T22:44:38.614Z,101377.66
2019-04-21T22:47:16.804Z,101380.51
2019-04-21T22:49:38.795Z,101378.48
2019-04-21T22:52:13.805Z,101376.06
2019-04-21T22:54:41.314Z,101379.56
2019-04-21T22:57:14.848Z,101378.51
2019-04-21T22:59:40.438Z,101371.75
2019-04-21T23:02:17.657Z,101370.84
2019-04-21T23:04:46.215Z,101377.52
2019-04-21T23:07:15.415Z,101370.57
2019-04-21T23:09:40.612Z,101375.39
2019-04-21T23:12:12.476Z,101372.78
2019-04-21T23:14:47.424Z,101372.30
2019-04-21T23:17:30.809Z,101374.99
2019-04-21T23:20:03.623Z,101369.91
2019-04-21T23:22:27.570Z,101374.38
2019-04-21T23:25:03.054Z,101374.66
2019-04-21T23:27:25.116Z,101365.92
2019-04-21T23:30:08.177Z,101369.58
2019-04-21T23:32:23.862Z,101370.88
2019-04-21T23:34:44.169Z,101368.73
2019-04-21T23:37:18.492Z,101368.73
2019-04-21T23:39:43.588Z,101369.18
2019-04-21T23:42:20.776Z,101369.24
2019-04-21T23:44:47.500Z,101370.81
2019-04-21T23:47:27.788Z,101366.58
2019-04-21T23:49:53.346Z,101366.66
2019-04-21T23:52:16.025Z,101367.16
2019-04-21T23:54:45.175Z,101372.06
2019-04-21T23:57:24.598Z,101370.02
2019-04-21T23:59:51.892Z,101366.64
